createdAt,value
2023-01-13T00:01:09.719Z,11.25
2023-01-13T00:04:31.926Z,11.65
2023-01-13T00:07:53.879Z,16.58
2023-01-13T00:11:15.549Z,15.95
2023-01-13T00:14:37.795Z,16.85
2023-01-13T00:18:01.254Z,16.73
2023-01-13T00:21:24.444Z,18.50
2023-01-13T00:24:46.278Z,18.17
2023-01-13T00:28:10.215Z,16.10
2023-01-13T00:31:32.488Z,18.17
2023-01-13T00:34:55.956Z,16.98
2023-01-13T00:38:20.449Z,15.68
2023-01-13T00:41:59.399Z,14.68
2023-01-13T00:45:21.278Z,15.60
2023-01-13T00:48:43.603Z,15.85
2023-01-13T00:52:07.208Z,16.30
2023-01-13T00:55:31.869Z,16.42
2023-01-13T00:58:53.945Z,15.35
2023-01-13T01:02:15.776Z,16.27
2023-01-13T01:05:37.767Z,16.67
2023-01-13T01:09:01.354Z,15.75
2023-01-13T01:12:23.413Z,14.10
2023-01-13T01:15:45.811Z,17.05
2023-01-13T01:19:08.692Z,12.45
2023-01-13T01:22:30.532Z,17.85
2023-01-13T01:25:53.926Z,19.23
2023-01-13T01:29:16.685Z,18.48
2023-01-13T01:32:38.541Z,17.77
2023-01-13T01:36:02.278Z,18.80
2023-01-13T01:39:26.560Z,15.93
2023-01-13T01:43:07.200Z,23.58
2023-01-13T01:46:30.988Z,21.45
2023-01-13T01:49:52.939Z,18.60
2023-01-13T01:53:20.287Z,21.60
2023-01-13T01:56:45.784Z,20.70
2023-01-13T02:00:10.458Z,20.05
2023-01-13T02:03:32.260Z,18.77
2023-01-13T02:06:55.004Z,23.92
2023-01-13T02:10:19.649Z,23.23
2023-01-13T02:13:41.551Z,17.30
2023-01-13T02:17:23.210Z,17.08
2023-01-13T02:21:09.452Z,23.25
2023-01-13T02:25:02.444Z,23.70
2023-01-13T02:29:02.757Z,23.50
2023-01-13T02:32:30.429Z,24.10
2023-01-13T02:35:58.746Z,21.77
2023-01-13T02:39:26.444Z,20.90
2023-01-13T02:43:12.541Z,17.67
2023-01-13T02:46:39.409Z,20.85
2023-01-13T02:50:06.531Z,21.42
2023-01-13T02:53:35.397Z,18.50
2023-01-13T02:57:00.669Z,17.70
2023-01-13T03:00:24.601Z,16.35
2023-01-13T03:03:47.094Z,15.80
2023-01-13T03:07:14.854Z,15.73
2023-01-13T03:10:49.312Z,14.13
2023-01-13T03:14:22.567Z,21.08
2023-01-13T03:17:50.354Z,12.27
2023-01-13T03:21:20.107Z,13.57
2023-01-13T03:24:48.162Z,15.98
2023-01-13T03:28:18.617Z,16.38
2023-01-13T03:32:03.253Z,10.90
2023-01-13T03:35:30.876Z,13.55
2023-01-13T03:38:55.310Z,13.75
2023-01-13T03:42:22.327Z,12.90
2023-01-13T03:45:47.841Z,13.30
2023-01-13T03:49:14.563Z,13.48
2023-01-13T03:52:39.221Z,13.82
2023-01-13T03:56:08.956Z,13.98
2023-01-13T03:59:37.783Z,12.32
2023-01-13T04:03:06.662Z,11.20
2023-01-13T04:06:38.262Z,13.70
2023-01-13T04:10:04.028Z,12.75
2023-01-13T04:13:30.115Z,10.50
2023-01-13T04:16:53.605Z,14.23
2023-01-13T04:20:15.826Z,11.23
2023-01-13T04:23:37.780Z,10.68
2023-01-13T04:26:59.451Z,16.10
2023-01-13T04:30:21.412Z,18.95
2023-01-13T04:33:44.591Z,19.65
2023-01-13T04:37:06.603Z,22.95
2023-01-13T04:40:28.677Z,27.35
2023-01-13T04:43:50.633Z,22.63
2023-01-13T04:47:12.662Z,14.52
2023-01-13T04:50:36.145Z,12.70
2023-01-13T04:53:58.234Z,16.50
2023-01-13T04:57:19.809Z,15.93
2023-01-13T05:00:41.989Z,17.05
2023-01-13T05:04:03.821Z,10.05
2023-01-13T05:07:27.239Z,16.23
2023-01-13T05:10:49.476Z,17.85
2023-01-13T05:14:28.575Z,15.18
2023-01-13T05:17:51.421Z,10.65
2023-01-13T05:21:33.824Z,14.40
2023-01-13T05:25:14.541Z,8.77
2023-01-13T05:28:36.681Z,13.98
2023-01-13T05:31:58.342Z,12.77
2023-01-13T05:35:20.798Z,12.75
2023-01-13T05:38:43.201Z,8.88
2023-01-13T05:42:32.889Z,9.75
2023-01-13T05:45:58.862Z,12.93
2023-01-13T05:49:21.114Z,14.02
2023-01-13T05:52:43.554Z,14.30
2023-01-13T05:56:06.112Z,8.45
2023-01-13T05:59:29.253Z,8.93
2023-01-13T06:02:51.273Z,12.90
2023-01-13T06:06:13.131Z,17.73
2023-01-13T06:09:35.130Z,25.40
2023-01-13T06:12:57.261Z,10.30
2023-01-13T06:16:21.199Z,8.63
2023-01-13T06:19:43.905Z,10.15
2023-01-13T06:23:06.301Z,7.78
2023-01-13T06:26:31.301Z,10.93
2023-01-13T06:29:53.225Z,5.82
2023-01-13T06:33:20.624Z,8.07
2023-01-13T06:36:47.073Z,12.68
2023-01-13T06:40:12.001Z,12.07
2023-01-13T06:43:34.195Z,10.35
2023-01-13T06:46:56.284Z,15.50
2023-01-13T06:50:20.348Z,13.55
2023-01-13T06:53:42.348Z,13.40
2023-01-13T06:57:04.364Z,17.10
2023-01-13T07:00:27.424Z,13.43
2023-01-13T07:03:49.407Z,10.02
2023-01-13T07:07:13.287Z,13.07
2023-01-13T07:10:35.803Z,17.55
2023-01-13T07:14:14.975Z,19.27
2023-01-13T07:21:01.059Z,29.50
2023-01-13T07:24:24.471Z,41.67
2023-01-13T07:27:46.469Z,43.83
2023-01-13T07:31:15.713Z,17.73
2023-01-13T07:34:37.557Z,16.10
2023-01-13T07:37:59.354Z,11.15
2023-01-13T07:41:40.402Z,14.52
2023-01-13T07:45:02.718Z,9.73
2023-01-13T07:48:24.872Z,9.68
2023-01-13T07:51:46.577Z,11.50
2023-01-13T07:55:09.759Z,15.95
2023-01-13T07:58:35.025Z,12.02
2023-01-13T08:01:57.327Z,10.57
2023-01-13T08:05:19.523Z,13.65
2023-01-13T08:08:41.380Z,14.55
2023-01-13T08:12:20.229Z,12.85
2023-01-13T08:15:43.756Z,13.45
2023-01-13T08:19:05.803Z,10.00
2023-01-13T08:22:27.896Z,11.52
2023-01-13T08:25:49.965Z,8.68
2023-01-13T08:29:14.641Z,14.27
2023-01-13T08:32:37.885Z,12.45
2023-01-13T08:36:00.089Z,12.93
2023-01-13T08:39:21.735Z,15.43
2023-01-13T08:42:43.583Z,16.88
2023-01-13T08:46:05.705Z,16.15
2023-01-13T08:49:28.991Z,17.70
2023-01-13T08:52:51.325Z,17.27
2023-01-13T08:56:13.643Z,15.80
2023-01-13T08:59:35.625Z,19.58
2023-01-13T09:02:57.788Z,18.63
2023-01-13T09:06:21.237Z,16.17
2023-01-13T09:09:43.577Z,14.98
2023-01-13T09:13:14.303Z,22.00
2023-01-13T09:16:35.941Z,29.40
2023-01-13T09:19:57.964Z,23.05
2023-01-13T09:23:21.325Z,24.73
2023-01-13T09:26:43.347Z,22.73
2023-01-13T09:30:05.870Z,24.75
2023-01-13T09:33:45.171Z,24.00
2023-01-13T09:40:31.070Z,26.05
2023-01-13T09:43:57.389Z,21.42
2023-01-13T09:47:25.891Z,25.23
2023-01-13T09:50:58.598Z,36.22
2023-01-13T09:54:27.172Z,33.28
2023-01-13T09:57:50.104Z,27.20
2023-01-13T10:01:22.869Z,32.70
2023-01-13T10:04:44.562Z,42.00
2023-01-13T10:08:12.696Z,40.38
2023-01-13T10:11:58.073Z,42.17
2023-01-13T10:15:24.405Z,40.17
2023-01-13T10:18:58.346Z,34.08
2023-01-13T10:22:29.231Z,40.25
2023-01-13T10:25:59.605Z,46.53
2023-01-13T10:29:24.979Z,34.70
2023-01-13T10:32:54.004Z,33.25
2023-01-13T10:36:17.471Z,29.13
2023-01-13T10:39:44.396Z,29.13
2023-01-13T10:43:07.635Z,27.27
2023-01-13T10:46:30.526Z,27.35
2023-01-13T10:50:25.458Z,23.45
2023-01-13T10:53:52.747Z,24.10
2023-01-13T10:57:20.045Z,29.88
2023-01-13T11:00:42.229Z,22.50
2023-01-13T11:04:27.965Z,21.42
2023-01-13T11:07:56.416Z,20.70
2023-01-13T11:11:38.306Z,23.50
2023-01-13T11:15:03.781Z,25.60
2023-01-13T11:18:30.909Z,26.77
2023-01-13T11:22:02.087Z,19.52
2023-01-13T11:25:33.061Z,16.88
2023-01-13T11:29:02.171Z,20.63
2023-01-13T11:32:25.950Z,19.35
2023-01-13T11:35:59.814Z,30.25
2023-01-13T11:39:27.560Z,39.15
2023-01-13T11:42:56.068Z,30.48
2023-01-13T11:46:17.901Z,23.50
2023-01-13T11:49:39.991Z,24.38
2023-01-13T11:53:13.587Z,30.30
2023-01-13T11:56:53.210Z,32.75
2023-01-13T12:03:50.614Z,45.00
2023-01-13T12:07:23.000Z,37.08
2023-01-13T12:10:57.153Z,36.97
2023-01-13T12:14:26.643Z,40.67
2023-01-13T12:18:03.616Z,36.65
2023-01-13T12:21:28.371Z,38.92
2023-01-13T12:24:54.616Z,33.78
2023-01-13T12:28:21.864Z,30.15
2023-01-13T12:31:45.327Z,28.88
2023-01-13T12:35:31.225Z,22.63
2023-01-13T12:38:58.903Z,26.00
2023-01-13T12:42:44.966Z,24.60
2023-01-13T12:46:53.228Z,20.23
2023-01-13T12:50:44.605Z,19.30
2023-01-13T12:54:55.026Z,20.48
2023-01-13T12:58:18.428Z,20.77
2023-01-13T13:01:40.596Z,20.17
2023-01-13T13:05:49.400Z,22.45
2023-01-13T13:09:25.090Z,19.13
2023-01-13T13:13:16.745Z,20.02
2023-01-13T13:16:51.821Z,23.48
2023-01-13T13:20:55.071Z,17.92
2023-01-13T13:24:19.666Z,17.80
2023-01-13T13:27:48.060Z,16.25
2023-01-13T13:31:26.319Z,14.82
2023-01-13T13:34:56.702Z,22.02
2023-01-13T13:38:59.618Z,15.15
2023-01-13T13:42:43.374Z,12.93
2023-01-13T13:46:41.539Z,19.65
2023-01-13T13:50:09.172Z,39.07
2023-01-13T13:53:34.649Z,15.52
2023-01-13T13:56:56.572Z,14.27
2023-01-13T14:00:25.418Z,29.85
2023-01-13T14:03:47.251Z,47.58
2023-01-13T14:07:20.654Z,24.42
2023-01-13T14:10:45.054Z,26.33
2023-01-13T14:14:13.682Z,69.22
2023-01-13T14:17:36.886Z,16.65
2023-01-13T14:21:01.291Z,15.13
2023-01-13T14:24:24.951Z,34.75
2023-01-13T14:27:47.023Z,20.63
2023-01-13T14:31:10.993Z,10.93
2023-01-13T14:34:35.335Z,9.13
2023-01-13T14:38:04.376Z,11.35
2023-01-13T14:41:28.930Z,10.45
2023-01-13T14:44:52.627Z,10.98
2023-01-13T14:48:15.866Z,10.88
2023-01-13T14:51:39.032Z,8.40
2023-01-13T14:55:25.004Z,10.95
2023-01-13T14:58:48.308Z,14.40
2023-01-13T15:02:47.033Z,9.48
2023-01-13T15:06:25.542Z,17.98
2023-01-13T15:09:53.754Z,28.17
2023-01-13T15:13:27.097Z,10.68
2023-01-13T15:16:49.074Z,27.08
2023-01-13T15:20:15.250Z,9.32
2023-01-13T15:23:37.226Z,10.80
2023-01-13T15:27:00.441Z,11.25
2023-01-13T15:30:25.066Z,11.25
2023-01-13T15:33:46.920Z,7.53
2023-01-13T15:37:10.239Z,7.20
2023-01-13T15:40:33.761Z,6.65
2023-01-13T15:44:14.604Z,8.25
2023-01-13T15:47:36.896Z,7.85
2023-01-13T15:50:58.892Z,7.25
2023-01-13T15:54:24.638Z,9.80
2023-01-13T15:57:49.826Z,8.82
2023-01-13T16:01:14.148Z,9.02
2023-01-13T16:04:36.029Z,10.80
2023-01-13T16:07:58.083Z,8.20
2023-01-13T16:11:20.121Z,12.10
2023-01-13T16:14:42.053Z,15.85
2023-01-13T16:18:05.876Z,11.48
2023-01-13T16:21:27.972Z,6.20
2023-01-13T16:24:49.991Z,6.43
2023-01-13T16:28:20.188Z,6.65
2023-01-13T16:31:42.405Z,9.30
2023-01-13T16:35:06.391Z,11.57
2023-01-13T16:38:28.170Z,8.55
2023-01-13T16:41:49.986Z,6.18
2023-01-13T16:45:12.670Z,6.78
2023-01-13T16:48:34.823Z,7.07
2023-01-13T16:51:58.376Z,9.52
2023-01-13T16:55:20.580Z,9.55
2023-01-13T16:58:42.420Z,9.82
2023-01-13T17:02:06.498Z,14.30
2023-01-13T17:05:28.663Z,7.57
2023-01-13T17:08:53.088Z,16.02
2023-01-13T17:12:15.109Z,20.70
2023-01-13T17:15:37.222Z,17.75
2023-01-13T17:19:00.004Z,16.05
2023-01-13T17:22:22.736Z,14.45
2023-01-13T17:25:46.198Z,10.50
2023-01-13T17:29:09.516Z,9.85
2023-01-13T17:32:34.298Z,26.27
2023-01-13T17:35:56.196Z,24.17
2023-01-13T17:39:20.607Z,19.50
2023-01-13T17:42:43.558Z,34.15
2023-01-13T17:46:09.276Z,24.05
2023-01-13T17:49:31.680Z,16.45
2023-01-13T17:52:54.755Z,14.18
2023-01-13T17:56:18.871Z,14.98
2023-01-13T17:59:42.810Z,19.73
2023-01-13T18:03:04.887Z,15.32
2023-01-13T18:06:26.932Z,19.13
2023-01-13T18:09:49.085Z,15.35
2023-01-13T18:13:11.064Z,20.40
2023-01-13T18:16:34.387Z,17.88
2023-01-13T18:20:13.906Z,20.83
2023-01-13T18:23:53.834Z,24.90
2023-01-13T18:27:22.887Z,15.02
2023-01-13T18:30:44.729Z,12.23
2023-01-13T18:34:07.850Z,13.52
2023-01-13T18:37:29.785Z,12.80
2023-01-13T18:40:51.707Z,16.35
2023-01-13T18:44:13.427Z,12.98
2023-01-13T18:47:37.186Z,12.50
2023-01-13T18:51:00.474Z,14.63
2023-01-13T18:54:22.743Z,27.30
2023-01-13T18:57:45.143Z,12.55
2023-01-13T19:01:07.267Z,14.95
2023-01-13T19:04:29.281Z,13.93
2023-01-13T19:07:52.489Z,17.35
2023-01-13T19:11:14.823Z,19.33
2023-01-13T19:14:37.752Z,56.35
2023-01-13T19:17:59.629Z,22.23
2023-01-13T19:21:21.688Z,31.95
2023-01-13T19:24:44.967Z,16.95
2023-01-13T19:28:06.705Z,17.50
2023-01-13T19:31:28.556Z,14.85
2023-01-13T19:34:51.384Z,18.45
2023-01-13T19:38:13.542Z,20.60
2023-01-13T19:41:54.741Z,20.35
2023-01-13T19:45:31.442Z,21.63
2023-01-13T19:48:53.511Z,21.02
2023-01-13T19:52:15.416Z,22.27
2023-01-13T19:55:37.490Z,21.77
2023-01-13T19:59:00.572Z,19.58
2023-01-13T20:02:28.653Z,23.17
2023-01-13T20:05:50.715Z,22.35
2023-01-13T20:09:12.779Z,17.88
2023-01-13T20:12:34.602Z,17.48
2023-01-13T20:15:57.466Z,17.10
2023-01-13T20:19:19.355Z,14.60
2023-01-13T20:22:42.065Z,17.77
2023-01-13T20:26:07.719Z,17.63
2023-01-13T20:29:29.407Z,17.77
2023-01-13T20:32:52.809Z,19.83
2023-01-13T20:36:26.499Z,23.30
2023-01-13T20:39:48.581Z,17.42
2023-01-13T20:43:10.621Z,26.05
2023-01-13T20:46:32.779Z,20.75
2023-01-13T20:49:56.068Z,22.35
2023-01-13T20:53:18.209Z,21.33
2023-01-13T20:56:40.682Z,27.25
2023-01-13T21:00:02.760Z,17.98
2023-01-13T21:03:24.607Z,19.65
2023-01-13T21:06:48.290Z,25.70
2023-01-13T21:10:11.907Z,29.23
2023-01-13T21:13:51.619Z,28.38
2023-01-13T21:17:38.804Z,39.58
2023-01-13T21:21:11.705Z,25.88
2023-01-13T21:24:34.950Z,41.08
2023-01-13T21:28:00.479Z,32.60
2023-01-13T21:31:22.640Z,33.95
2023-01-13T21:34:44.366Z,44.80
2023-01-13T21:38:06.415Z,39.30
2023-01-13T21:41:47.228Z,39.45
2023-01-13T21:45:28.896Z,32.85
2023-01-13T21:48:52.315Z,42.10
2023-01-13T21:52:15.421Z,38.42
2023-01-13T21:55:38.046Z,42.42
2023-01-13T21:59:01.197Z,37.03
2023-01-13T22:02:33.146Z,32.67
2023-01-13T22:05:55.891Z,36.40
2023-01-13T22:09:17.639Z,29.60
2023-01-13T22:12:40.482Z,41.30
2023-01-13T22:16:05.713Z,40.83
2023-01-13T22:19:28.195Z,37.58
2023-01-13T22:22:50.734Z,32.08
2023-01-13T22:26:13.673Z,31.20
2023-01-13T22:29:37.650Z,40.38
2023-01-13T22:33:00.909Z,40.35
2023-01-13T22:36:24.159Z,33.42
2023-01-13T22:39:45.832Z,32.33
2023-01-13T22:43:07.467Z,34.10
2023-01-13T22:46:29.409Z,39.10
2023-01-13T22:49:52.822Z,31.25
2023-01-13T22:53:14.966Z,33.63
2023-01-13T22:56:36.965Z,34.00
2023-01-13T22:59:59.068Z,40.67
2023-01-13T23:03:20.853Z,29.35
2023-01-13T23:06:43.969Z,31.27
2023-01-13T23:10:06.527Z,36.67
2023-01-13T23:13:28.166Z,43.95
2023-01-13T23:16:50.172Z,32.13
2023-01-13T23:20:12.860Z,43.50
2023-01-13T23:23:36.144Z,36.22
2023-01-13T23:26:58.165Z,27.98
2023-01-13T23:30:20.248Z,32.53
2023-01-13T23:33:43.653Z,29.30
2023-01-13T23:37:05.669Z,24.77
2023-01-13T23:40:29.244Z,24.88
2023-01-13T23:43:53.025Z,20.52
2023-01-13T23:47:15.109Z,21.08
2023-01-13T23:50:37.043Z,16.55
2023-01-13T23:54:00.078Z,14.52
2023-01-13T23:57:23.572Z,13.63
